Time;durP1;ratioP1;P1;durP2;ratioP2;P2;SDS_P1;SDS_P2;PMS_P1;PMS_P2;Temp;Humidity;BMP_temperature;BMP_pressure;BME280_temperature;BME280_humidity;BME280_pressure;Samples;Min_cycle;Max_cycle;Signal;HPM_P1;HPM_P2
2023/10/19 00:00:48;;;;;;;7.25;4.07;;;16.50;1.00;;;;;;5048692;28;20458;-29
2023/10/19 00:03:15;;;;;;;7.82;4.63;;;16.50;1.00;;;;;;5057587;28;20052;-27
2023/10/19 00:05:41;;;;;;;8.40;4.75;;;;;;;;;;5049459;28;20044;-27
2023/10/19 00:10:42;;;;;;;10.18;5.38;;;17.00;1.00;;;;;;5043244;28;20040;-29
2023/10/19 00:13:11;;;;;;;10.18;5.63;;;;;;;;;;5048750;28;20132;-29
2023/10/19 00:15:40;;;;;;;7.90;4.63;;;;;;;;;;5045051;28;20527;-27
2023/10/19 00:18:32;;;;;;;8.88;5.22;;;;;;;;;;5046006;28;20037;-27
2023/10/19 00:21:11;;;;;;;9.07;5.68;;;17.30;1.00;;;;;;5038056;28;20449;-29
2023/10/19 00:23:39;;;;;;;8.93;5.55;;;16.90;1.00;;;;;;5035602;28;20060;-26
2023/10/19 00:26:10;;;;;;;8.93;5.15;;;;;;;;;;5043789;28;20124;-28
2023/10/19 00:28:38;;;;;;;8.93;5.10;;;16.70;1.00;;;;;;5053396;28;20041;-27
2023/10/19 00:31:07;;;;;;;8.82;4.85;;;17.10;1.00;;;;;;5053471;28;20040;-27
2023/10/19 00:33:38;;;;;;;8.40;5.18;;;16.40;1.00;;;;;;5043795;28;20098;-29
2023/10/19 00:36:08;;;;;;;9.48;5.88;;;;;;;;;;5046365;28;20045;-27
2023/10/19 00:38:50;;;;;;;10.35;5.90;;;;;;;;;;5046598;28;20047;-28
2023/10/19 00:41:31;;;;;;;9.02;6.10;;;16.80;1.00;;;;;;5045642;28;20075;-29
2023/10/19 00:44:02;;;;;;;10.05;5.30;;;17.00;1.00;;;;;;5043953;28;20412;-28
2023/10/19 00:46:32;;;;;;;10.05;5.95;;;;;;;;;;5046442;28;20037;-28
2023/10/19 00:48:59;;;;;;;8.55;5.55;;;;;;;;;;5046572;28;20139;-29
2023/10/19 00:54:14;;;;;;;10.52;6.18;;;;;;;;;;5034947;28;20047;-26
2023/10/19 00:56:46;;;;;;;9.85;5.90;;;;;;;;;;5032152;28;20043;-27
2023/10/19 00:59:14;;;;;;;8.88;5.65;;;16.60;1.00;;;;;;5039433;28;20041;-27
2023/10/19 01:01:44;;;;;;;8.50;5.25;;;16.30;1.00;;;;;;5053747;28;20033;-27
2023/10/19 01:04:23;;;;;;;9.65;6.47;;;16.60;1.00;;;;;;5036788;28;20068;-27
2023/10/19 01:09:36;;;;;;;10.73;6.05;;;;;;;;;;5047909;28;20064;-27
2023/10/19 01:12:25;;;;;;;8.18;5.25;;;16.50;1.00;;;;;;5043604;28;20550;-26
2023/10/19 01:15:16;;;;;;;9.60;6.25;;;16.40;1.00;;;;;;5072419;28;20087;-27
2023/10/19 01:17:56;;;;;;;8.63;5.47;;;16.90;1.00;;;;;;5046643;28;20055;-29
2023/10/19 01:28:24;;;;;;;9.32;6.78;;;16.60;1.00;;;;;;5047678;28;20119;-29
2023/10/19 01:30:53;;;;;;;8.55;5.30;;;16.50;1.00;;;;;;5045421;28;20048;-27
2023/10/19 01:33:19;;;;;;;7.88;4.63;;;16.60;1.00;;;;;;5045949;28;20064;-29
2023/10/19 01:38:33;;;;;;;8.48;5.40;;;;;;;;;;5046797;28;20045;-27
2023/10/19 01:41:19;;;;;;;9.30;6.07;;;16.50;1.00;;;;;;5047599;28;20349;-29
2023/10/19 01:43:46;;;;;;;9.60;6.03;;;16.00;1.00;;;;;;5046558;28;20033;-27
2023/10/19 01:46:21;;;;;;;8.45;5.65;;;16.50;1.00;;;;;;5054508;28;20068;-28
2023/10/19 01:48:49;;;;;;;9.80;6.63;;;;;;;;;;5041183;28;20033;-29
2023/10/19 01:51:15;;;;;;;10.00;6.07;;;16.70;1.00;;;;;;5051902;28;20045;-27
2023/10/19 01:53:44;;;;;;;9.02;6.30;;;16.20;1.00;;;;;;5036385;28;20412;-26
2023/10/19 01:56:12;;;;;;;10.00;7.13;;;;;;;;;;5046051;28;20041;-29
2023/10/19 01:58:39;;;;;;;9.10;5.75;;;;;;;;;;5042562;28;20045;-29
2023/10/19 02:03:41;;;;;;;7.68;5.35;;;;;;;;;;5039632;28;20045;-28
2023/10/19 02:06:16;;;;;;;9.20;6.15;;;16.40;1.00;;;;;;5033068;28;20056;-27
2023/10/19 02:08:51;;;;;;;10.07;6.57;;;15.70;1.00;;;;;;5045229;28;20049;-27
2023/10/19 02:11:20;;;;;;;9.85;6.72;;;;;;;;;;5039597;28;20040;-26
2023/10/19 02:13:52;;;;;;;8.68;6.03;;;16.30;1.00;;;;;;5048037;28;20045;-28
2023/10/19 02:16:22;;;;;;;9.02;6.05;;;;;;;;;;5069377;28;20044;-27
2023/10/19 02:18:48;;;;;;;9.60;6.47;;;;;;;;;;5044202;28;20164;-28
2023/10/19 02:21:14;;;;;;;8.93;5.75;;;16.40;1.00;;;;;;5044738;28;20472;-27
2023/10/19 02:23:44;;;;;;;7.55;5.25;;;;;;;;;;5049213;28;20167;-26
2023/10/19 02:26:13;;;;;;;9.13;5.50;;;;;;;;;;5039522;28;20496;-27
2023/10/19 02:28:39;;;;;;;8.27;5.38;;;16.40;1.00;;;;;;5050202;28;20519;-28
2023/10/19 02:31:25;;;;;;;8.40;5.10;;;16.40;1.00;;;;;;5048412;28;20056;-29
2023/10/19 02:33:58;;;;;;;8.35;5.65;;;;;;;;;;5044629;28;20049;-27
2023/10/19 02:36:28;;;;;;;8.68;5.13;;;;;;;;;;5048994;28;20049;-28
2023/10/19 02:38:54;;;;;;;6.93;5.07;;;;;;;;;;5048104;28;20127;-26
2023/10/19 02:41:21;;;;;;;8.43;4.95;;;;;;;;;;5037519;28;20029;-29
2023/10/19 02:43:51;;;;;;;7.90;5.30;;;;;;;;;;5052764;28;20040;-27
2023/10/19 02:46:17;;;;;;;7.88;4.88;;;15.80;1.00;;;;;;5049765;28;20404;-28
2023/10/19 02:48:44;;;;;;;8.23;5.20;;;15.70;1.00;;;;;;5042484;28;20036;-29
2023/10/19 02:51:11;;;;;;;8.35;4.60;;;15.90;1.00;;;;;;5052544;28;20044;-28
2023/10/19 02:53:38;;;;;;;8.25;4.80;;;;;;;;;;5041160;28;20060;-27
2023/10/19 02:56:16;;;;;;;6.65;4.28;;;;;;;;;;5044820;28;20054;-27
2023/10/19 02:58:43;;;;;;;6.47;4.07;;;;;;;;;;5049498;28;20452;-28
2023/10/19 03:01:19;;;;;;;7.10;3.85;;;;;;;;;;5039700;28;20045;-27
2023/10/19 03:03:46;;;;;;;6.93;4.40;;;16.40;1.00;;;;;;5041295;28;20043;-28
2023/10/19 03:06:12;;;;;;;6.88;3.65;;;16.20;1.00;;;;;;5046915;28;20495;-28
2023/10/19 03:08:37;;;;;;;6.10;3.50;;;16.60;1.00;;;;;;5046482;28;20049;-26
2023/10/19 03:11:09;;;;;;;6.68;3.13;;;16.30;1.00;;;;;;5043131;28;20045;-27
2023/10/19 03:13:35;;;;;;;5.78;3.22;;;15.70;1.00;;;;;;5039733;28;20053;-27
2023/10/19 03:16:01;;;;;;;7.00;4.10;;;16.40;1.00;;;;;;5040706;28;20049;-26
2023/10/19 03:18:28;;;;;;;5.80;3.72;;;;;;;;;;5047323;28;20036;-30
2023/10/19 03:20:54;;;;;;;5.75;3.10;;;;;;;;;;5043716;28;20041;-28
2023/10/19 03:23:20;;;;;;;5.47;3.20;;;16.90;1.00;;;;;;5043087;28;20042;-28
2023/10/19 03:26:17;;;;;;;5.38;3.10;;;15.70;1.00;;;;;;5048050;28;20044;-28
2023/10/19 03:28:40;;;;;;;6.55;3.58;;;15.50;1.00;;;;;;5042111;28;20440;-28
2023/10/19 03:31:07;;;;;;;5.75;2.92;;;15.70;1.00;;;;;;5046660;28;20176;-26
2023/10/19 03:33:36;;;;;;;5.85;3.17;;;16.50;1.00;;;;;;5039322;28;20040;-28
2023/10/19 03:36:03;;;;;;;5.20;2.80;;;16.10;1.00;;;;;;5048390;28;20036;-27
2023/10/19 03:38:34;;;;;;;5.55;3.17;;;16.10;1.00;;;;;;5039120;28;20636;-28
2023/10/19 03:41:06;;;;;;;5.68;3.08;;;16.40;1.00;;;;;;5036737;28;20049;-29
2023/10/19 03:43:32;;;;;;;5.32;2.55;;;;;;;;;;5042768;28;20049;-28
2023/10/19 03:45:59;;;;;;;6.15;2.88;;;16.10;1.00;;;;;;5049286;28;20039;-28
2023/10/19 03:48:30;;;;;;;5.55;2.60;;;16.60;1.00;;;;;;5037181;28;20048;-28
2023/10/19 03:50:56;;;;;;;5.00;2.63;;;16.40;1.00;;;;;;5041567;28;20041;-27
2023/10/19 03:53:23;;;;;;;5.95;2.38;;;;;;;;;;5047221;28;20232;-29
2023/10/19 03:55:54;;;;;;;5.03;2.65;;;;;;;;;;5043031;28;20112;-28
2023/10/19 03:58:20;;;;;;;5.10;2.40;;;16.00;1.00;;;;;;5047354;28;20041;-28
2023/10/19 04:00:49;;;;;;;4.80;2.22;;;;;;;;;;5041298;28;20519;-26
2023/10/19 04:03:17;;;;;;;4.97;2.38;;;;;;;;;;5068409;28;20103;-28
2023/10/19 04:05:46;;;;;;;4.88;2.50;;;16.50;1.00;;;;;;5043302;28;20041;-26
2023/10/19 04:08:14;;;;;;;4.72;2.22;;;15.40;1.00;;;;;;5044113;28;20045;-27
2023/10/19 04:11:08;;;;;;;8.60;2.60;;;15.70;1.00;;;;;;5042767;28;20075;-26
2023/10/19 04:13:35;;;;;;;5.00;2.23;;;16.10;1.00;;;;;;5045985;28;20037;-26
2023/10/19 04:16:01;;;;;;;4.88;2.50;;;15.70;1.00;;;;;;5045048;28;20055;-28
2023/10/19 04:18:27;;;;;;;4.45;2.40;;;16.60;1.00;;;;;;5039345;28;20029;-28
2023/10/19 04:23:20;;;;;;;5.60;2.78;;;;;;;;;;5046413;28;20606;-29
2023/10/19 04:25:46;;;;;;;4.57;2.13;;;16.00;1.00;;;;;;5039988;28;20049;-28
2023/10/19 04:28:15;;;;;;;5.00;2.60;;;16.00;1.00;;;;;;5036531;28;20158;-28
2023/10/19 04:30:41;;;;;;;6.55;2.53;;;15.90;1.00;;;;;;5039779;28;20044;-26
2023/10/19 04:33:10;;;;;;;5.47;2.67;;;15.70;1.00;;;;;;5040303;28;20404;-25
2023/10/19 04:35:37;;;;;;;5.30;3.20;;;;;;;;;;5040554;28;20178;-26
2023/10/19 04:38:07;;;;;;;5.40;2.90;;;16.60;1.00;;;;;;5039964;28;20450;-28
2023/10/19 04:40:33;;;;;;;8.00;2.70;;;16.60;1.00;;;;;;5037154;28;20052;-27
2023/10/19 04:43:03;;;;;;;8.10;3.58;;;15.50;1.00;;;;;;5042410;28;20036;-28
2023/10/19 04:45:29;;;;;;;12.27;4.25;;;16.10;1.00;;;;;;5038461;28;20524;-26
2023/10/19 04:47:55;;;;;;;14.52;4.53;;;16.20;1.00;;;;;;5039421;28;21508;-28
2023/10/19 04:50:21;;;;;;;18.10;6.38;;;;;;;;;;5038079;28;20183;-26
2023/10/19 04:52:47;;;;;;;19.33;5.30;;;15.40;1.00;;;;;;5044713;28;20041;-26
2023/10/19 04:55:13;;;;;;;14.05;6.07;;;16.00;1.00;;;;;;5038014;28;20054;-29
2023/10/19 04:57:39;;;;;;;15.40;5.30;;;15.70;1.00;;;;;;5037641;28;20056;-25
2023/10/19 05:00:05;;;;;;;11.20;4.63;;;15.40;1.00;;;;;;5040637;28;20041;-26
2023/10/19 05:02:31;;;;;;;13.07;4.60;;;16.10;1.00;;;;;;5038795;28;20041;-28
2023/10/19 05:04:56;;;;;;;11.95;4.15;;;16.20;1.00;;;;;;5037710;28;20073;-28
2023/10/19 05:07:22;;;;;;;7.82;3.83;;;16.10;1.00;;;;;;5043480;28;20069;-29
2023/10/19 05:09:48;;;;;;;10.20;4.32;;;16.20;1.00;;;;;;5051420;28;20145;-28
2023/10/19 05:12:15;;;;;;;13.35;4.53;;;;;;;;;;5048258;28;20531;-28
2023/10/19 05:14:41;;;;;;;11.18;4.50;;;;;;;;;;5041641;28;20413;-28
2023/10/19 05:17:09;;;;;;;10.25;3.95;;;16.00;1.00;;;;;;5047887;28;20029;-28
2023/10/19 05:19:35;;;;;;;12.95;4.20;;;;;;;;;;5033718;28;20042;-28
2023/10/19 05:22:02;;;;;;;8.18;3.50;;;16.60;1.00;;;;;;5039307;28;20424;-27
2023/10/19 05:24:29;;;;;;;8.73;3.40;;;;;;;;;;5049090;28;20063;-30
2023/10/19 05:26:56;;;;;;;7.07;3.22;;;;;;;;;;5050938;28;20492;-29
2023/10/19 05:29:22;;;;;;;7.75;3.20;;;16.10;1.00;;;;;;5050311;28;20051;-28
2023/10/19 05:31:53;;;;;;;7.50;3.58;;;16.50;1.00;;;;;;5053551;28;20033;-28
2023/10/19 05:34:22;;;;;;;8.45;3.10;;;16.50;1.00;;;;;;5076408;28;20559;-28
2023/10/19 05:36:51;;;;;;;7.47;3.33;;;;;;;;;;5048662;28;20583;-26
2023/10/19 05:39:17;;;;;;;7.25;3.03;;;15.40;1.00;;;;;;5044846;28;20036;-28
2023/10/19 05:41:43;;;;;;;6.95;3.00;;;16.20;1.00;;;;;;5055016;28;20420;-28
2023/10/19 05:44:09;;;;;;;5.30;2.35;;;16.00;1.00;;;;;;5051500;28;20090;-26
2023/10/19 05:46:34;;;;;;;5.95;2.33;;;16.00;1.00;;;;;;5053593;28;20044;-28
2023/10/19 05:49:03;;;;;;;7.10;2.55;;;;;;;;;;5052733;28;20029;-28
2023/10/19 05:51:32;;;;;;;6.30;2.60;;;15.30;1.00;;;;;;5054153;28;20040;-27
2023/10/19 05:54:04;;;;;;;6.25;3.03;;;15.90;1.00;;;;;;5053919;28;20033;-28
2023/10/19 05:56:30;;;;;;;6.68;2.13;;;;;;;;;;5031148;28;20079;-28
2023/10/19 05:58:56;;;;;;;4.88;2.20;;;16.10;1.00;;;;;;4962079;28;20053;-25
2023/10/19 06:01:23;;;;;;;5.70;2.30;;;;;;;;;;5029772;28;20508;-27
2023/10/19 06:03:50;;;;;;;5.63;2.28;;;15.90;1.00;;;;;;5041480;28;20037;-26
2023/10/19 06:06:16;;;;;;;4.63;2.05;;;;;;;;;;5020424;28;20449;-26
2023/10/19 06:08:42;;;;;;;5.25;2.00;;;16.00;1.00;;;;;;5026243;28;20118;-26
2023/10/19 06:11:07;;;;;;;5.95;2.60;;;16.00;1.00;;;;;;5041517;28;20142;-29
2023/10/19 06:13:33;;;;;;;5.68;2.35;;;15.90;1.00;;;;;;5024394;28;20045;-29
2023/10/19 06:15:59;;;;;;;4.70;2.10;;;15.50;1.00;;;;;;5041238;28;20044;-29
2023/10/19 06:18:24;;;;;;;4.60;2.15;;;15.40;1.00;;;;;;5039065;28;20040;-26
2023/10/19 06:20:51;;;;;;;4.50;1.90;;;15.90;1.00;;;;;;5036615;28;20223;-27
2023/10/19 06:23:17;;;;;;;5.43;1.88;;;;;;;;;;5041850;28;20079;-27
2023/10/19 06:25:44;;;;;;;4.95;2.17;;;;;;;;;;5039241;28;20044;-25
2023/10/19 06:28:13;;;;;;;5.13;2.08;;;15.90;1.00;;;;;;5043473;28;20143;-28
2023/10/19 06:30:40;;;;;;;4.82;2.30;;;15.80;1.00;;;;;;5041538;28;20064;-31
2023/10/19 06:33:06;;;;;;;4.63;2.03;;;16.00;1.00;;;;;;5041826;28;20037;-27
2023/10/19 06:35:33;;;;;;;4.70;2.20;;;15.80;1.00;;;;;;5042896;28;20136;-28
2023/10/19 06:38:00;;;;;;;4.10;1.85;;;;;;;;;;5041466;28;20043;-28
2023/10/19 06:40:27;;;;;;;5.15;2.10;;;16.40;1.00;;;;;;5041679;28;20538;-27
2023/10/19 06:42:57;;;;;;;4.78;2.35;;;15.90;1.00;;;;;;5037904;28;20044;-28
2023/10/19 06:45:25;;;;;;;6.55;2.20;;;;;;;;;;5042795;28;20047;-27
2023/10/19 06:47:51;;;;;;;4.40;1.98;;;16.30;1.00;;;;;;5040674;28;20419;-26
2023/10/19 06:50:18;;;;;;;4.53;1.90;;;;;;;;;;5042662;28;20143;-26
2023/10/19 06:52:46;;;;;;;4.38;1.92;;;;;;;;;;5042614;28;20048;-27
2023/10/19 06:55:19;;;;;;;4.65;2.10;;;;;;;;;;5042338;28;20060;-25
2023/10/19 06:57:47;;;;;;;5.63;2.10;;;;;;;;;;5024604;28;20047;-27
2023/10/19 07:00:14;;;;;;;4.32;1.80;;;;;;;;;;5042574;28;20044;-27
2023/10/19 07:02:45;;;;;;;4.40;1.80;;;;;;;;;;5040384;28;20041;-28
2023/10/19 07:05:13;;;;;;;4.25;1.83;;;;;;;;;;5041366;28;20064;-28
2023/10/19 07:07:41;;;;;;;4.00;1.70;;;15.60;1.00;;;;;;5041136;28;20052;-26
2023/10/19 07:10:12;;;;;;;4.72;1.80;;;16.10;1.00;;;;;;5040915;28;20126;-30
2023/10/19 07:12:39;;;;;;;3.97;1.42;;;15.80;1.00;;;;;;5041773;28;20566;-27
2023/10/19 07:15:07;;;;;;;4.30;1.80;;;;;;;;;;5039835;28;20079;-28
2023/10/19 07:17:34;;;;;;;4.40;1.85;;;;;;;;;;5039671;28;20052;-26
2023/10/19 07:20:00;;;;;;;4.20;1.70;;;16.50;1.00;;;;;;5071984;28;20533;-26
2023/10/19 07:22:25;;;;;;;4.70;1.50;;;15.40;1.00;;;;;;5040619;28;20025;-28
2023/10/19 07:24:51;;;;;;;4.18;1.73;;;15.20;1.00;;;;;;5040412;28;20146;-27
2023/10/19 07:27:20;;;;;;;4.60;1.80;;;;;;;;;;5040130;28;20037;-27
2023/10/19 07:29:47;;;;;;;3.60;1.50;;;;;;;;;;5038282;28;20087;-27
2023/10/19 07:32:16;;;;;;;4.13;1.67;;;;;;;;;;5040857;28;20041;-27
2023/10/19 07:34:44;;;;;;;4.00;1.75;;;;;;;;;;5041916;28;20503;-26
2023/10/19 07:37:15;;;;;;;4.35;2.10;;;15.90;1.00;;;;;;5040383;28;20688;-26
2023/10/19 07:39:47;;;;;;;4.30;1.88;;;;;;;;;;5040751;28;20059;-27
2023/10/19 07:42:13;;;;;;;4.30;2.00;;;;;;;;;;5041307;28;20279;-26
2023/10/19 07:44:39;;;;;;;4.10;1.90;;;15.40;1.00;;;;;;5039870;28;20052;-29
2023/10/19 07:47:07;;;;;;;4.03;1.92;;;15.80;1.00;;;;;;5040557;28;20697;-28
2023/10/19 07:49:32;;;;;;;3.80;1.83;;;15.90;1.00;;;;;;5039550;28;20446;-27
2023/10/19 07:51:59;;;;;;;4.10;1.80;;;15.70;1.00;;;;;;5039678;28;20044;-28
2023/10/19 07:54:24;;;;;;;4.53;2.17;;;16.40;1.00;;;;;;5046512;28;20074;-29
2023/10/19 07:56:50;;;;;;;4.57;1.90;;;16.10;1.00;;;;;;5044474;28;20037;-27
2023/10/19 07:59:16;;;;;;;4.22;2.10;;;15.60;1.00;;;;;;5044283;28;20040;-26
2023/10/19 08:01:42;;;;;;;4.80;1.80;;;;;;;;;;5040916;28;20037;-26
2023/10/19 08:04:08;;;;;;;4.43;1.85;;;16.10;1.00;;;;;;5043055;28;20053;-29
2023/10/19 08:06:33;;;;;;;5.15;1.92;;;15.90;1.00;;;;;;5039924;28;20044;-27
2023/10/19 08:08:59;;;;;;;4.97;2.58;;;15.70;1.00;;;;;;5042809;28;20045;-28
2023/10/19 08:11:25;;;;;;;4.78;2.25;;;16.30;1.00;;;;;;5042510;28;20124;-26
2023/10/19 08:13:50;;;;;;;5.72;2.00;;;15.50;1.00;;;;;;5040008;28;20459;-27
2023/10/19 08:16:16;;;;;;;5.20;2.00;;;;;;;;;;5041649;28;20131;-26
2023/10/19 08:18:43;;;;;;;5.05;1.98;;;15.30;1.00;;;;;;5040565;28;20123;-28
2023/10/19 08:21:09;;;;;;;4.85;1.90;;;15.90;1.00;;;;;;5041357;28;20063;-29
2023/10/19 08:23:34;;;;;;;4.30;1.90;;;15.60;1.00;;;;;;5042898;28;20048;-28
2023/10/19 08:26:00;;;;;;;5.70;2.00;;;;;;;;;;5042021;28;21461;-28
2023/10/19 08:28:27;;;;;;;4.60;2.20;;;16.40;1.00;;;;;;5043847;28;20037;-26
2023/10/19 08:31:01;;;;;;;4.85;2.30;;;16.50;1.00;;;;;;5040827;28;20045;-28
2023/10/19 08:33:28;;;;;;;5.65;2.28;;;15.20;1.00;;;;;;5038615;28;20037;-29
2023/10/19 08:35:59;;;;;;;5.65;2.00;;;16.20;1.00;;;;;;5042289;28;20102;-29
2023/10/19 08:38:25;;;;;;;5.28;2.33;;;16.20;1.00;;;;;;5045032;28;20114;-27
2023/10/19 08:40:51;;;;;;;4.65;2.05;;;15.10;1.00;;;;;;5039807;28;20492;-27
2023/10/19 08:43:21;;;;;;;4.70;2.33;;;;;;;;;;5040806;28;20045;-26
2023/10/19 08:45:47;;;;;;;4.72;2.20;;;;;;;;;;5045108;28;20519;-26
2023/10/19 08:48:14;;;;;;;4.70;2.17;;;;;;;;;;5048173;28;20125;-28
2023/10/19 08:50:40;;;;;;;5.28;2.55;;;15.90;1.00;;;;;;5044743;28;20053;-28
2023/10/19 08:53:13;;;;;;;4.70;2.22;;;;;;;;;;5044876;28;20037;-26
2023/10/19 08:55:39;;;;;;;6.30;2.50;;;;;;;;;;5045033;28;20056;-28
2023/10/19 08:58:05;;;;;;;5.10;2.50;;;;;;;;;;5040116;28;20388;-29
2023/10/19 09:00:48;;;;;;;5.25;2.50;;;15.70;1.00;;;;;;5038853;28;20102;-29
2023/10/19 09:03:16;;;;;;;4.70;2.20;;;;;;;;;;5044958;28;20115;-25
2023/10/19 09:05:42;;;;;;;5.18;2.40;;;15.60;4.90;;;;;;5043912;28;20032;-27
2023/10/19 09:08:09;;;;;;;4.88;2.10;;;15.90;1.00;;;;;;5041296;28;20045;-27
2023/10/19 09:10:36;;;;;;;5.18;2.65;;;16.50;1.00;;;;;;5073393;28;20048;-28
2023/10/19 09:13:03;;;;;;;4.90;2.15;;;;;;;;;;5040457;28;20053;-27
2023/10/19 09:15:32;;;;;;;4.97;2.20;;;;;;;;;;5042558;28;20056;-28
2023/10/19 09:18:16;;;;;;;5.18;2.58;;;;;;;;;;5040896;28;20040;-30
2023/10/19 09:20:52;;;;;;;6.15;2.60;;;;;;;;;;5046769;28;20175;-27
2023/10/19 09:23:19;;;;;;;4.40;2.20;;;;;;;;;;5040453;28;20048;-26
2023/10/19 09:25:44;;;;;;;4.78;2.30;;;15.90;6.00;;;;;;5038966;28;20033;-26
2023/10/19 09:28:13;;;;;;;7.03;2.40;;;;;;;;;;5046278;28;20515;-28
2023/10/19 09:30:40;;;;;;;5.05;2.25;;;;;;;;;;5042746;28;20068;-30
2023/10/19 09:33:07;;;;;;;5.30;2.30;;;15.60;1.00;;;;;;5044499;28;20198;-27
2023/10/19 09:35:34;;;;;;;5.05;2.20;;;15.40;1.00;;;;;;5044895;28;20053;-26
2023/10/19 09:38:00;;;;;;;5.38;2.50;;;15.90;6.00;;;;;;5043683;28;20080;-26
2023/10/19 09:40:29;;;;;;;6.93;2.85;;;15.90;8.50;;;;;;5045676;28;20408;-27
2023/10/19 09:42:57;;;;;;;5.68;2.50;;;16.50;11.90;;;;;;5043451;28;20538;-28
2023/10/19 09:45:27;;;;;;;5.60;2.47;;;16.30;1.00;;;;;;5044896;28;20052;-28
2023/10/19 09:47:54;;;;;;;5.75;2.92;;;16.10;1.60;;;;;;5042208;28;20097;-28
2023/10/19 09:50:20;;;;;;;5.47;2.58;;;15.80;3.40;;;;;;5042838;28;20036;-27
2023/10/19 09:52:46;;;;;;;5.25;2.58;;;;;;;;;;5042764;28;20124;-26
2023/10/19 09:55:20;;;;;;;5.68;2.47;;;;;;;;;;5043905;28;20041;-26
2023/10/19 09:57:52;;;;;;;4.88;2.38;;;;;;;;;;5042475;28;20528;-25
2023/10/19 10:00:23;;;;;;;6.60;3.10;;;15.30;5.30;;;;;;5040282;28;20040;-29
2023/10/19 10:02:49;;;;;;;6.38;3.08;;;;;;;;;;5038991;28;20049;-26
2023/10/19 10:05:34;;;;;;;5.43;2.80;;;;;;;;;;5042653;28;20059;-26
2023/10/19 10:08:18;;;;;;;5.32;2.80;;;15.70;1.00;;;;;;5037329;28;20049;-28
2023/10/19 10:10:44;;;;;;;5.65;3.10;;;;;;;;;;5042396;28;20049;-27
2023/10/19 10:13:30;;;;;;;4.85;2.42;;;15.90;1.00;;;;;;5039361;28;20072;-26
2023/10/19 10:16:04;;;;;;;5.80;2.80;;;;;;;;;;5055977;28;20474;-28
2023/10/19 10:18:37;;;;;;;5.75;2.90;;;15.90;1.00;;;;;;5022519;28;20040;-29
2023/10/19 10:21:08;;;;;;;5.18;2.70;;;;;;;;;;5041772;28;20432;-28
2023/10/19 10:23:43;;;;;;;5.40;2.80;;;15.70;5.80;;;;;;5038910;28;20049;-28
2023/10/19 10:26:11;;;;;;;5.32;2.90;;;15.90;17.60;;;;;;5035933;28;20060;-30
2023/10/19 10:28:36;;;;;;;7.38;3.47;;;15.90;20.00;;;;;;5042957;28;20151;-26
2023/10/19 10:31:09;;;;;;;5.10;2.50;;;;;;;;;;5040902;28;20049;-28
2023/10/19 10:34:02;;;;;;;7.25;3.90;;;;;;;;;;5041110;28;20041;-26
2023/10/19 10:36:48;;;;;;;7.28;3.90;;;;;;;;;;5042597;28;20118;-31
2023/10/19 10:39:16;;;;;;;5.95;3.53;;;16.60;16.00;;;;;;5023634;28;20049;-27
2023/10/19 10:41:42;;;;;;;6.30;3.20;;;16.40;15.70;;;;;;5041258;28;20115;-27
2023/10/19 10:44:07;;;;;;;5.03;2.90;;;15.50;16.80;;;;;;5037690;28;20245;-26
2023/10/19 10:46:33;;;;;;;4.80;2.58;;;16.00;23.70;;;;;;5039162;28;20523;-26
2023/10/19 10:48:58;;;;;;;4.57;2.50;;;15.50;16.90;;;;;;5038169;28;20523;-31
2023/10/19 10:51:28;;;;;;;5.45;2.58;;;15.30;11.90;;;;;;5036398;28;20029;-28
2023/10/19 10:53:54;;;;;;;4.97;2.63;;;16.00;31.70;;;;;;5039517;28;20041;-26
2023/10/19 10:56:22;;;;;;;5.55;3.05;;;16.00;27.70;;;;;;5039223;28;20512;-27
2023/10/19 10:58:48;;;;;;;8.07;3.55;;;15.60;20.80;;;;;;5038503;28;20045;-27
2023/10/19 11:01:14;;;;;;;6.72;3.05;;;;;;;;;;5035329;28;20041;-28
2023/10/19 11:03:43;;;;;;;5.57;2.70;;;;;;;;;;5040624;28;20063;-28
2023/10/19 11:06:10;;;;;;;5.93;2.60;;;16.00;31.20;;;;;;5040902;28;20052;-26
2023/10/19 11:08:36;;;;;;;5.82;2.80;;;;;;;;;;5038531;28;20500;-25
2023/10/19 11:11:04;;;;;;;6.85;3.40;;;;;;;;;;5039570;28;20056;-30
2023/10/19 11:13:33;;;;;;;7.45;3.17;;;15.90;26.20;;;;;;5038483;28;20041;-27
2023/10/19 11:16:00;;;;;;;6.88;3.35;;;15.80;41.90;;;;;;5041197;28;20115;-29
2023/10/19 11:18:40;;;;;;;5.95;3.03;;;;;;;;;;5037941;28;20045;-28
2023/10/19 11:21:10;;;;;;;5.50;2.85;;;;;;;;;;5038851;28;20044;-27
2023/10/19 11:23:42;;;;;;;5.30;2.78;;;;;;;;;;5038342;28;20424;-29
2023/10/19 11:26:09;;;;;;;6.38;3.20;;;16.10;39.20;;;;;;5035087;28;20540;-27
2023/10/19 11:28:42;;;;;;;6.22;2.90;;;;;;;;;;5041528;28;20036;-29
2023/10/19 11:31:15;;;;;;;6.30;3.17;;;;;;;;;;5041547;28;20052;-26
2023/10/19 11:33:42;;;;;;;7.13;2.92;;;;;;;;;;5040932;28;20044;-28
2023/10/19 11:36:08;;;;;;;5.72;2.80;;;17.70;45.40;;;;;;5041744;28;20041;-29
2023/10/19 11:38:35;;;;;;;5.38;2.70;;;16.00;49.80;;;;;;5041881;28;20787;-28
2023/10/19 11:41:03;;;;;;;6.20;3.33;;;16.20;47.80;;;;;;5040943;28;20049;-29
2023/10/19 11:43:29;;;;;;;6.95;3.30;;;;;;;;;;5040210;28;20052;-28
2023/10/19 11:45:54;;;;;;;7.47;3.20;;;16.20;54.30;;;;;;5040068;28;20103;-28
2023/10/19 11:48:20;;;;;;;6.25;2.90;;;16.60;42.60;;;;;;5039756;28;20040;-27
2023/10/19 11:50:47;;;;;;;5.45;2.70;;;16.10;50.70;;;;;;5040703;28;20044;-25
2023/10/19 11:53:13;;;;;;;6.82;3.58;;;;;;;;;;5041594;28;20041;-28
2023/10/19 11:55:41;;;;;;;6.78;3.55;;;16.20;51.30;;;;;;5041736;28;20424;-29
2023/10/19 11:58:11;;;;;;;5.80;2.83;;;16.20;47.70;;;;;;5041728;28;20041;-29
2023/10/19 12:00:37;;;;;;;5.85;3.03;;;16.10;49.20;;;;;;5039920;28;20045;-28
2023/10/19 12:03:04;;;;;;;5.43;2.80;;;16.10;46.40;;;;;;5039209;28;20057;-28
2023/10/19 12:05:30;;;;;;;5.82;3.40;;;16.40;42.20;;;;;;5039683;28;20259;-29
2023/10/19 12:07:56;;;;;;;5.78;2.97;;;16.30;50.60;;;;;;5040847;28;20033;-28
2023/10/19 12:10:32;;;;;;;5.50;3.47;;;;;;;;;;5022537;28;20064;-26
2023/10/19 12:12:58;;;;;;;7.47;2.95;;;16.20;57.60;;;;;;5041125;28;20045;-27
2023/10/19 12:15:25;;;;;;;5.93;3.17;;;16.20;56.60;;;;;;5040712;28;20408;-28
2023/10/19 12:17:51;;;;;;;6.13;3.40;;;15.60;45.30;;;;;;5039288;28;20057;-28
2023/10/19 12:20:21;;;;;;;5.95;3.17;;;16.70;52.30;;;;;;5041145;28;20082;-26
2023/10/19 12:22:52;;;;;;;5.70;2.88;;;;;;;;;;5038875;28;20124;-28
2023/10/19 12:25:17;;;;;;;6.28;3.60;;;16.60;52.60;;;;;;5039003;28;20484;-27
2023/10/19 12:27:43;;;;;;;5.93;2.90;;;;;;;;;;5037495;28;20056;-28
2023/10/19 12:30:25;;;;;;;5.90;3.15;;;;;;;;;;5040242;28;20056;-30
2023/10/19 12:32:52;;;;;;;5.57;2.75;;;15.90;45.70;;;;;;5042516;28;20049;-29
2023/10/19 12:35:24;;;;;;;5.70;3.00;;;;;;;;;;5045543;28;20049;-26
2023/10/19 12:37:53;;;;;;;6.72;3.25;;;;;;;;;;5044698;28;20048;-25
2023/10/19 12:40:26;;;;;;;5.93;2.92;;;15.70;45.70;;;;;;5042731;28;20564;-25
2023/10/19 12:42:55;;;;;;;6.70;3.20;;;16.50;47.20;;;;;;5040135;28;20045;-29
2023/10/19 12:45:25;;;;;;;6.22;2.83;;;16.70;39.80;;;;;;5042699;28;20404;-26
2023/10/19 12:47:51;;;;;;;5.35;2.75;;;;;;;;;;5045029;28;20044;-27
2023/10/19 12:50:22;;;;;;;5.47;2.63;;;;;;;;;;5046434;28;20508;-26
2023/10/19 12:52:49;;;;;;;5.13;2.50;;;;;;;;;;5041471;28;20040;-29
2023/10/19 12:55:15;;;;;;;4.97;2.50;;;15.70;47.40;;;;;;5046753;28;20044;-27
2023/10/19 12:57:40;;;;;;;5.15;2.55;;;15.60;46.60;;;;;;5048502;28;20329;-25
2023/10/19 13:00:26;;;;;;;6.03;3.28;;;;;;;;;;5040004;28;20053;-29
2023/10/19 13:03:03;;;;;;;4.82;2.42;;;;;;;;;;5038768;28;20040;-27
2023/10/19 13:05:33;;;;;;;5.10;2.50;;;16.70;40.30;;;;;;5023586;28;20120;-29
2023/10/19 13:07:58;;;;;;;5.68;2.00;;;16.90;45.20;;;;;;5042250;28;20032;-29
2023/10/19 13:10:32;;;;;;;8.70;2.72;;;16.30;30.30;;;;;;5043609;28;20075;-30
2023/10/19 13:13:00;;;;;;;4.70;2.20;;;16.10;56.30;;;;;;5043609;28;20294;-30
2023/10/19 13:15:30;;;;;;;5.20;2.63;;;16.80;46.90;;;;;;5041247;28;20522;-29
2023/10/19 13:17:56;;;;;;;5.60;2.53;;;16.40;56.70;;;;;;5025399;28;20032;-27
2023/10/19 13:20:23;;;;;;;6.15;3.20;;;;;;;;;;5042123;28;20044;-26
2023/10/19 13:22:49;;;;;;;5.28;2.58;;;;;;;;;;5044834;28;20446;-26
2023/10/19 13:25:18;;;;;;;6.15;2.50;;;16.00;45.00;;;;;;5046743;28;20044;-25
2023/10/19 13:27:46;;;;;;;6.35;2.80;;;;;;;;;;5046788;28;20377;-27
2023/10/19 13:30:14;;;;;;;6.85;3.00;;;;;;;;;;5048493;28;20452;-28
2023/10/19 13:32:42;;;;;;;6.13;3.30;;;16.10;60.30;;;;;;5045559;28;20559;-30
2023/10/19 13:35:09;;;;;;;6.75;3.00;;;;;;;;;;5044313;28;20057;-28
2023/10/19 13:37:34;;;;;;;5.57;3.03;;;16.10;56.20;;;;;;5044738;28;20424;-28
2023/10/19 13:40:00;;;;;;;7.47;3.47;;;15.60;46.10;;;;;;5044136;28;20436;-28
2023/10/19 13:42:26;;;;;;;6.95;3.05;;;16.50;46.20;;;;;;5041437;28;20034;-27
2023/10/19 13:44:51;;;;;;;5.68;3.08;;;15.50;45.30;;;;;;5045070;28;20495;-26
2023/10/19 13:47:17;;;;;;;5.55;2.78;;;16.10;51.50;;;;;;5045570;28;20040;-26
2023/10/19 13:49:42;;;;;;;6.20;2.97;;;16.30;46.50;;;;;;5044371;28;20465;-28
2023/10/19 13:52:08;;;;;;;7.90;3.35;;;16.20;52.90;;;;;;5041915;28;20044;-29
2023/10/19 13:54:36;;;;;;;7.30;3.63;;;16.10;58.10;;;;;;5043394;28;20060;-27
2023/10/19 13:57:02;;;;;;;5.88;3.40;;;16.20;52.80;;;;;;5043082;28;20056;-28
2023/10/19 13:59:33;;;;;;;5.95;3.40;;;16.10;16.20;;;;;;5042772;28;20064;-29
2023/10/19 14:01:59;;;;;;;5.35;2.92;;;;;;;;;;5043283;28;20045;-28
2023/10/19 14:04:25;;;;;;;6.78;3.80;;;16.60;45.30;;;;;;5042132;28;20033;-28